x

Cape San Martin - 55nm West Nw Of Morro Bay, Ca (46028) Wave Buoy

1:50am - Sat 30th Jul 2016 All times are PDT. -7 hours from GMT.

  • Sig Wave height 5.6ft
  • Swell Direction
  • Peak Period 10s
  • Average Period 8s
  • Wind
    9mph, 11mph gusts
  • Sea Temp 58°f
  • Air Temp 56°f
  • Sea Pressure 1010mb
  • Cape San Martin - 55nm West Nw Of Morro Bay, Ca
  • Cape San Martin - 55nm West Nw Of Morro Bay, Ca

More Historic Weather Station data

Upgrade to MSW Pro to gain access to the past 30 days of data for over 8000 Wavebouys and Weather Stations around the globe.

Join Pro

Comparision Forecast

View Surf forecast
   
Sat 07/30 1:50am 5.5ft 10s 8s 9 11 mph 1010mb 58f 56f
12:50am 5ft 9s 7s 9 11 mph 1010.2mb 58f 56f
Fri 07/29 10:50pm 5.5ft 10s 8s 9 13 mph 1010.4mb 58f 56f
9:50pm 5ft 10s 7s 9 11 mph 1010.4mb 58f 56f
8:50pm 5ft 9s 7s 9 11 mph 1010.4mb 58f 57f
7:50pm 5.5ft 10s 7s 11 16 mph 1010mb 58f 57f
6:50pm 5ft 10s 7s 13 16 mph 1009.7mb 58f 57f
5:50pm 5ft 9s 7s 13 16 mph 1010.2mb 58f 57f
4:50pm 5ft 9s 7s 13 16 mph 1010.4mb 58f 57f
3:50pm 5ft 10s 7s 13 18 mph 1010.7mb 58f 57f
2:50pm 5ft 9s 7s 13 16 mph 1011.4mb 58f 57f
1:50pm 5ft 10s 7s 9 11 mph 1011.9mb 58f 57f
12:50pm 5ft 9s 7s 9 11 mph 1012.1mb 57f 56f
11:50am 5ft 10s 7s 9 13 mph 1012.2mb 56f 56f
10:50am 5ft 10s 7s 11 13 mph 1012.2mb 57f 56f
9:50am 4.5ft 10s 7s 9 11 mph 1012.1mb 57f 56f
8:50am 5ft 10s 7s 9 11 mph 1012.3mb 57f 56f
7:50am 4.5ft 9s 7s 11 13 mph 1011.8mb 57f 56f
6:50am 5ft 10s 7s 13 16 mph 1011.5mb 57f 56f
5:50am 5ft 9s 6s 13 16 mph 1011.3mb 56f 55f
4:50am 5ft 9s 6s 13 18 mph 1011mb 56f 56f
3:50am 5.5ft 9s 7s 11 13 mph 1011.3mb 56f 56f
2:50am 5ft 10s 7s 11 13 mph 1011.4mb 56f 56f
1:50am 5ft 10s 6s 11 13 mph 1011.6mb 57f 56f
12:50am 5.5ft 9s 7s 13 16 mph 1011.9mb 57f 56f
Thu 07/28 11:50pm 5ft 9s 6s 11 13 mph 1012.2mb 57f 56f
10:50pm 6ft 10s 7s 13 18 mph 1012.2mb 57f 56f
9:50pm 5.5ft 9s 7s 13 16 mph 1012mb 58f 56f
8:50pm 5.5ft 10s 7s 13 16 mph 1011.8mb 58f 57f
7:50pm 5.5ft 9s 7s 16 18 mph 1011.6mb 58f 56f
6:50pm 6ft 10s 7s 13 18 mph 1011.7mb 58f 57f
5:50pm 5.5ft 10s 7s 13 18 mph 1011.9mb 58f 57f
3:50pm 5.5ft 9s 7s 13 16 mph 1012.8mb 58f 57f
2:50pm 5.5ft 10s 7s 11 13 mph 1013.5mb 58f 57f
1:50pm 6ft 10s 7s 13 16 mph 1013.9mb 58f 57f
12:50pm 5.5ft 10s 7s 11 13 mph 1014.2mb 58f 57f
10:50am 5.5ft 9s 7s 11 13 mph 1014mb 58f 56f
9:50am 5.5ft 10s 7s 13 16 mph 1013.8mb 58f 56f
8:50am 6ft 10s 7s 11 13 mph 1013.9mb 58f 56f
7:50am 6ft 10s 7s 13 16 mph 1013.6mb 58f 55f
6:50am 5.5ft 10s 7s 13 16 mph 1013.3mb 58f 55f
5:50am 6ft 10s 7s 13 18 mph 1012.6mb 58f 55f
4:50am 5.5ft 9s 7s 13 16 mph 1012.6mb 58f 55f
3:50am 5.5ft 10s 7s 13 16 mph 1012.8mb 58f 55f
2:50am 5.5ft 10s 7s 13 16 mph 1012.9mb 58f 55f
1:50am 6.5ft 10s 8s 11 16 mph 1013.2mb 58f 55f
12:50am 6ft 10s 7s 11 13 mph 1013.5mb 58f 55f
Wed 07/27 11:50pm 6ft 10s 7s 11 13 mph 1013.6mb 58f 56f
10:50pm 7ft 10s 8s 9 11 mph 1013.6mb 58f 56f
9:50pm 6.5ft 11s 8s 11 13 mph 1013.7mb 58f 56f
8:50pm 7ft 10s 8s 11 13 mph 1013.3mb 58f 56f
7:50pm 7ft 9s 8s 11 16 mph 1012.9mb 58f 56f
6:50pm 7ft 11s 8s 11 13 mph 1012.7mb 58f 56f
5:50pm 7.5ft 11s 9s 11 13 mph 1013.1mb 58f 56f
4:50pm 6.5ft 10s 8s 9 11 mph 1013.4mb 58f 57f
3:50pm 6ft 9s 8s 11 13 mph 1013.6mb 58f 57f
2:50pm 5.5ft 9s 7s 7 9 mph 1014.1mb 58f 57f
1:50pm 6.5ft 9s 8s 7 9 mph 1014.3mb 58f 57f
12:50pm 7ft 9s 8s 7 11 mph 1014.5mb 58f 56f
11:50am 6.5ft 10s 8s 9 13 mph 1014.4mb 58f 56f
10:50am 6ft 9s 8s 9 11 mph 1014.3mb 58f 55f
9:50am 6ft 9s 8s 9 11 mph 1013.8mb 58f 55f
8:50am 6ft 11s 8s 9 11 mph 1013.3mb 57f 55f
7:50am 6ft 10s 8s 9 11 mph 1013mb 58f 54f
6:50am 6.5ft 11s 8s 9 11 mph 1012.8mb 57f 54f
5:50am 6ft 10s 8s 11 13 mph 1012.1mb 57f 54f
4:50am 6.5ft 11s 8s 13 16 mph 1011.6mb 57f 54f
3:50am 6.5ft 10s 8s 11 13 mph 1011.8mb 57f 54f
1:50am 7ft 10s 8s 9 11 mph 1012.1mb 57f 54f
12:50am 6ft 9s 8s 9 11 mph 1012.4mb 56f 54f
Tue 07/26 11:50pm 6.5ft 10s 8s 4 7 mph 1012.8mb 56f 54f
10:50pm 7ft 10s 8s 4 9 mph 1013.1mb 56f 55f
9:50pm 6.5ft 9s 8s 9 13 mph 1012.6mb 56f 55f
8:50pm 7ft 10s 8s 11 13 mph 1012mb 56f 55f
7:50pm 6.5ft 9s 7s 11 13 mph 1011.8mb 57f 54f
6:50pm 6ft 8s 8s 11 13 mph 1011.8mb 57f 55f
5:50pm 6ft 10s 8s 11 13 mph 1011.8mb 57f 55f
4:50pm 6ft 10s 8s 11 13 mph 1011.7mb 57f 54f
3:50pm 6ft 10s 8s 11 16 mph 1012.2mb 57f 54f
2:50pm 6ft 9s 8s 11 13 mph 1012.7mb 57f 54f
1:50pm 6ft 10s 8s 9 13 mph 1013.1mb 57f 53f
12:50pm 7ft 10s 8s 9 11 mph 1013.5mb 57f 53f
11:50am 6.5ft 9s 8s 9 11 mph 1013.8mb 56f 52f
10:50am 6ft 9s 8s 4 7 mph 1014.1mb 56f 53f